Terminal Aerodrome Forecast
Issued by NWS Wilmington, OH

Home | Current Version | Previous Version | Text Only | Print | Product List | Glossary On
Versions: 1 2 3 4 5 6 7 8 9 10 11 12 13 14 15 16 17 18 19 20 21 22
000
FTUS41 KILN 261128
TAFCMH
TAF
KCMH 261128Z 2612/2712 02004KT P6SM OVC022
     FM261500 VRB03KT P6SM SCT050 BKN200
     FM270200 06003KT P6SM SCT050 BKN100=

USA.gov is the U.S. government's official web portal to all federal, state and local government web resources and services.